createdAt,value
2023-04-24T00:02:39.828Z,83.05
2023-04-24T00:05:27.294Z,83.71
2023-04-24T00:08:07.291Z,85.07
2023-04-24T00:10:54.283Z,84.94
2023-04-24T00:13:34.414Z,84.03
2023-04-24T00:16:21.318Z,83.88
2023-04-24T00:19:01.912Z,83.67
2023-04-24T00:21:49.225Z,82.04
2023-04-24T00:24:29.499Z,81.01
2023-04-24T00:27:16.425Z,82.86
2023-04-24T00:29:56.586Z,80.66
2023-04-24T00:32:43.245Z,77.59
2023-04-24T00:35:24.488Z,85.18
2023-04-24T00:38:11.215Z,81.70
2023-04-24T00:41:05.242Z,77.87
2023-04-24T00:43:52.206Z,84.93
2023-04-24T00:46:32.367Z,82.04
2023-04-24T00:49:20.169Z,79.93
2023-04-24T00:52:00.594Z,83.03
2023-04-24T00:54:47.195Z,82.61
2023-04-24T00:57:27.306Z,81.49
2023-04-24T01:00:19.195Z,80.35
2023-04-24T01:03:00.441Z,86.91
2023-04-24T01:05:47.198Z,83.02
2023-04-24T01:08:35.150Z,80.72
2023-04-24T01:11:22.240Z,81.65
2023-04-24T01:14:09.211Z,83.38
2023-04-24T01:16:56.193Z,81.85
2023-04-24T01:19:36.607Z,81.88
2023-04-24T01:22:24.129Z,85.64
2023-04-24T01:25:13.148Z,84.16
2023-04-24T01:27:53.791Z,83.04
2023-04-24T01:30:41.116Z,84.06
2023-04-24T01:33:23.038Z,85.05
2023-04-24T01:36:10.132Z,83.83
2023-04-24T01:38:57.328Z,83.65
2023-04-24T01:41:44.154Z,84.32
2023-04-24T01:44:27.279Z,80.73
2023-04-24T01:47:14.148Z,80.09
2023-04-24T01:49:56.310Z,81.66
2023-04-24T01:52:44.073Z,82.26
2023-04-24T01:55:31.145Z,82.70
2023-04-24T01:58:19.135Z,83.36
2023-04-24T02:01:06.168Z,84.84
2023-04-24T02:03:47.776Z,85.23
2023-04-24T02:06:35.128Z,86.37
2023-04-24T02:09:22.097Z,86.84
2023-04-24T02:12:02.298Z,85.08
2023-04-24T02:14:50.082Z,83.80
2023-04-24T02:17:37.100Z,86.47
2023-04-24T02:20:25.053Z,85.53
2023-04-24T02:23:13.026Z,82.37
2023-04-24T02:26:01.044Z,84.68
2023-04-24T02:28:41.220Z,84.74
2023-04-24T02:31:28.103Z,83.33
2023-04-24T02:34:15.116Z,85.12
2023-04-24T02:37:02.086Z,89.99
2023-04-24T02:39:50.061Z,85.32
2023-04-24T02:42:37.032Z,83.86
2023-04-24T02:45:17.123Z,88.90
2023-04-24T02:48:04.112Z,87.86
2023-04-24T02:50:45.274Z,84.29
2023-04-24T02:53:32.091Z,86.02
2023-04-24T02:56:15.248Z,87.12
2023-04-24T02:59:02.148Z,84.48
2023-04-24T03:01:42.143Z,83.63
2023-04-24T03:04:30.112Z,87.88
2023-04-24T03:07:16.958Z,85.04
2023-04-24T03:10:05.993Z,86.74
2023-04-24T03:12:46.214Z,90.63
2023-04-24T03:15:32.963Z,86.97
2023-04-24T03:18:20.008Z,83.33
2023-04-24T03:21:00.526Z,93.84
2023-04-24T03:23:47.972Z,91.56
2023-04-24T03:26:28.476Z,90.13
2023-04-24T03:29:30.395Z,90.52
2023-04-24T03:32:17.097Z,96.70
2023-04-24T03:34:57.985Z,94.78
2023-04-24T03:37:38.347Z,94.20
2023-04-24T03:40:43.952Z,100.00
2023-04-24T03:43:50.966Z,96.87
2023-04-24T03:46:32.064Z,90.75
2023-04-24T03:49:18.966Z,100.00
2023-04-24T03:51:59.061Z,100.00
2023-04-24T03:54:45.960Z,96.63
2023-04-24T03:57:26.105Z,99.71
2023-04-24T04:00:23.953Z,99.56
2023-04-24T04:03:24.388Z,97.61
2023-04-24T04:06:11.909Z,93.08
2023-04-24T04:08:58.871Z,91.61
2023-04-24T04:11:39.419Z,87.66
2023-04-24T04:14:25.958Z,84.88
2023-04-24T04:17:06.243Z,80.65
2023-04-24T04:19:52.941Z,78.64
2023-04-24T04:22:33.317Z,77.50
2023-04-24T04:25:22.894Z,76.79
2023-04-24T04:28:03.329Z,73.81
2023-04-24T04:30:51.977Z,70.88
2023-04-24T04:33:32.690Z,70.66
2023-04-24T04:36:20.847Z,68.94
2023-04-24T04:39:08.883Z,67.89
2023-04-24T04:42:10.880Z,68.58
2023-04-24T04:44:57.865Z,66.67
2023-04-24T04:47:55.856Z,65.39
2023-04-24T04:50:38.253Z,66.46
2023-04-24T04:53:24.899Z,66.88
2023-04-24T04:56:05.539Z,69.14
2023-04-24T04:58:56.854Z,67.68
2023-04-24T05:01:37.805Z,66.78
2023-04-24T05:04:26.961Z,64.04
2023-04-24T05:07:07.426Z,64.27
2023-04-24T05:09:59.836Z,65.81
2023-04-24T05:12:53.842Z,63.38
2023-04-24T05:15:40.850Z,62.71
2023-04-24T05:18:21.981Z,62.13
2023-04-24T05:21:08.844Z,62.07
2023-04-24T05:23:51.983Z,60.85
2023-04-24T05:26:56.809Z,63.31
2023-04-24T05:29:48.816Z,61.11
2023-04-24T05:32:35.807Z,61.21
2023-04-24T05:35:22.860Z,59.32
2023-04-24T05:38:10.819Z,58.82
2023-04-24T05:41:04.843Z,58.11
2023-04-24T05:43:45.190Z,60.34
2023-04-24T05:46:31.948Z,59.27
2023-04-24T05:49:12.558Z,57.38
2023-04-24T05:52:00.799Z,56.96
2023-04-24T05:54:41.255Z,56.98
2023-04-24T05:57:32.855Z,59.33
2023-04-24T06:00:14.554Z,58.14
2023-04-24T06:03:12.996Z,57.21
2023-04-24T06:05:55.126Z,55.66
2023-04-24T06:08:42.763Z,54.22
2023-04-24T06:11:23.681Z,55.21
2023-04-24T06:14:11.765Z,55.78
2023-04-24T06:17:10.341Z,55.91
2023-04-24T06:19:58.875Z,54.31
2023-04-24T06:22:41.095Z,55.00
2023-04-24T06:25:27.880Z,52.44
2023-04-24T06:28:08.315Z,53.06
2023-04-24T06:30:54.715Z,53.44
2023-04-24T06:33:35.122Z,52.09
2023-04-24T06:36:23.810Z,53.45
2023-04-24T06:39:13.114Z,52.99
2023-04-24T06:42:06.862Z,51.45
2023-04-24T06:44:56.754Z,51.59
2023-04-24T06:47:39.020Z,54.97
2023-04-24T06:50:25.718Z,51.42
2023-04-24T06:53:12.710Z,49.86
2023-04-24T06:55:53.576Z,46.50
2023-04-24T06:58:40.785Z,46.44
2023-04-24T07:01:27.812Z,46.94
2023-04-24T07:04:15.012Z,44.06
2023-04-24T07:07:05.944Z,44.46
2023-04-24T07:09:48.684Z,47.88
2023-04-24T07:12:35.696Z,48.12
2023-04-24T07:15:22.702Z,50.46
2023-04-24T07:18:09.766Z,49.67
2023-04-24T07:20:53.247Z,48.59
2023-04-24T07:23:39.733Z,46.38
2023-04-24T07:39:42.724Z,48.55
2023-04-24T07:42:23.083Z,47.68
2023-04-24T07:45:10.313Z,47.50
2023-04-24T07:47:51.990Z,45.90
2023-04-24T07:50:38.393Z,46.49
2023-04-24T07:53:18.911Z,48.76
2023-04-24T07:56:05.305Z,51.05
2023-04-24T07:58:52.434Z,50.99
2023-04-24T08:01:32.668Z,48.10
2023-04-24T08:04:19.581Z,45.44
2023-04-24T08:06:59.437Z,42.95
2023-04-24T08:09:46.287Z,46.94
2023-04-24T08:12:26.433Z,48.66
2023-04-24T08:15:14.336Z,47.10
2023-04-24T08:17:54.413Z,44.96
2023-04-24T08:20:41.316Z,43.89
2023-04-24T08:23:21.506Z,44.54
2023-04-24T08:26:08.281Z,47.71
2023-04-24T08:28:48.436Z,45.02
2023-04-24T08:31:35.344Z,47.24
2023-04-24T08:34:22.389Z,48.68
2023-04-24T08:37:10.255Z,48.20
2023-04-24T08:39:58.472Z,43.72
2023-04-24T08:42:41.286Z,41.88
2023-04-24T08:45:22.093Z,42.96
2023-04-24T08:48:16.553Z,42.98
2023-04-24T08:51:05.802Z,40.08
2023-04-24T08:53:52.264Z,40.77
2023-04-24T08:56:36.078Z,38.90
2023-04-24T08:59:23.291Z,43.07
2023-04-24T09:02:11.584Z,43.12
2023-04-24T09:04:53.269Z,40.32
2023-04-24T09:07:37.198Z,42.52
2023-04-24T09:10:24.230Z,40.57
2023-04-24T09:13:11.347Z,39.22
2023-04-24T09:15:51.374Z,39.66
2023-04-24T09:18:38.233Z,40.13
2023-04-24T09:21:25.260Z,37.94
2023-04-24T09:24:15.372Z,39.49
2023-04-24T09:27:02.285Z,39.26
2023-04-24T09:29:58.101Z,41.48
2023-04-24T09:32:45.281Z,42.37
2023-04-24T09:35:25.917Z,43.12
2023-04-24T09:38:12.165Z,45.10
2023-04-24T09:40:59.222Z,43.84
2023-04-24T09:43:40.717Z,43.66
2023-04-24T09:46:29.318Z,44.99
2023-04-24T09:49:36.170Z,47.99
2023-04-24T09:52:23.204Z,46.82
2023-04-24T09:55:04.300Z,46.47
2023-04-24T09:57:59.182Z,45.19
2023-04-24T10:00:48.197Z,44.13
2023-04-24T10:03:38.236Z,45.38
2023-04-24T10:06:20.289Z,44.59
2023-04-24T10:09:07.241Z,47.29
2023-04-24T10:11:52.361Z,46.02
2023-04-24T10:14:39.173Z,48.69
2023-04-24T10:17:21.582Z,48.63
2023-04-24T10:20:09.205Z,49.57
2023-04-24T10:22:51.062Z,49.21
2023-04-24T10:25:41.171Z,45.05
2023-04-24T10:28:22.753Z,43.91
2023-04-24T10:31:09.175Z,42.41
2023-04-24T10:33:50.311Z,41.52
2023-04-24T10:36:40.192Z,40.71
2023-04-24T10:39:35.132Z,41.70
2023-04-24T10:42:19.130Z,41.14
2023-04-24T10:45:06.103Z,44.19
2023-04-24T10:48:08.226Z,44.85
2023-04-24T10:50:52.304Z,48.24
2023-04-24T10:53:42.177Z,50.77
2023-04-24T10:56:24.390Z,52.20
2023-04-24T10:59:17.101Z,53.79
2023-04-24T11:02:08.092Z,54.69
2023-04-24T11:04:52.571Z,54.94
2023-04-24T11:07:40.107Z,53.59
2023-04-24T11:10:34.112Z,51.58
2023-04-24T11:13:14.237Z,51.64
2023-04-24T11:16:21.149Z,49.98
2023-04-24T11:19:12.340Z,53.10
2023-04-24T11:22:08.118Z,55.59
2023-04-24T11:25:04.112Z,55.23
2023-04-24T11:27:46.613Z,58.04
2023-04-24T11:30:35.141Z,63.97
2023-04-24T11:33:21.772Z,68.62
2023-04-24T11:36:08.112Z,68.81
2023-04-24T11:38:55.381Z,73.44
2023-04-24T11:41:36.069Z,75.75
2023-04-24T11:44:28.095Z,80.28
2023-04-24T11:47:08.171Z,81.99
2023-04-24T11:49:58.238Z,80.81
2023-04-24T11:52:39.178Z,81.52
2023-04-24T11:55:26.047Z,82.08
2023-04-24T11:58:07.635Z,82.76
2023-04-24T12:01:04.070Z,83.25
2023-04-24T12:03:53.222Z,86.26
2023-04-24T12:06:33.495Z,84.79
2023-04-24T12:09:20.070Z,84.67
2023-04-24T12:12:07.146Z,84.98
2023-04-24T12:15:06.038Z,86.07
2023-04-24T12:17:46.958Z,86.74
2023-04-24T12:20:45.979Z,87.73
2023-04-24T12:23:46.064Z,86.97
2023-04-24T12:26:27.764Z,87.44
2023-04-24T12:29:15.999Z,89.66
2023-04-24T12:31:56.497Z,89.28
2023-04-24T12:34:43.014Z,89.35
2023-04-24T12:37:23.201Z,87.77
2023-04-24T12:40:16.023Z,88.31
2023-04-24T12:43:04.996Z,88.47
2023-04-24T12:45:54.972Z,85.88
2023-04-24T12:48:42.300Z,87.36
2023-04-24T12:51:22.445Z,89.66
2023-04-24T12:54:09.032Z,89.12
2023-04-24T12:56:56.013Z,89.29
2023-04-24T12:59:36.289Z,89.14
2023-04-24T13:02:26.091Z,90.16
2023-04-24T13:05:14.114Z,90.27
2023-04-24T13:07:54.385Z,91.04
2023-04-24T13:10:41.967Z,91.04
2023-04-24T13:13:28.929Z,89.37
2023-04-24T13:16:15.988Z,90.03
2023-04-24T13:18:56.484Z,89.58
2023-04-24T13:21:43.992Z,88.88
2023-04-24T13:24:27.440Z,90.24
2023-04-24T13:27:14.005Z,90.72
2023-04-24T13:29:54.321Z,89.34
2023-04-24T13:32:40.994Z,90.65
2023-04-24T13:35:21.426Z,90.08
2023-04-24T13:38:12.168Z,89.88
2023-04-24T13:40:58.959Z,88.79
2023-04-24T13:43:39.049Z,90.47
2023-04-24T13:46:26.010Z,90.48
2023-04-24T13:49:06.021Z,90.95
2023-04-24T13:51:53.990Z,90.31
2023-04-24T13:54:40.905Z,90.52
2023-04-24T13:57:21.599Z,91.65
2023-04-24T14:00:09.879Z,91.62
2023-04-24T14:02:57.005Z,91.63
2023-04-24T14:05:38.856Z,92.15
2023-04-24T14:08:25.851Z,91.63
2023-04-24T14:11:06.040Z,91.05
2023-04-24T14:13:53.913Z,91.82
2023-04-24T14:16:34.073Z,91.25
2023-04-24T14:19:20.916Z,92.44
2023-04-24T14:22:00.972Z,90.76
2023-04-24T14:24:47.848Z,91.79
2023-04-24T14:27:27.971Z,93.00
2023-04-24T14:30:15.836Z,93.17
2023-04-24T14:33:03.149Z,92.87
2023-04-24T14:35:50.328Z,91.15
2023-04-24T14:38:29.906Z,91.97
2023-04-24T14:41:17.833Z,92.30
2023-04-24T14:44:04.891Z,93.15
2023-04-24T14:46:51.905Z,93.65
2023-04-24T14:49:31.952Z,93.79
2023-04-24T14:52:18.838Z,92.91
2023-04-24T14:54:58.904Z,91.20
2023-04-24T14:57:45.850Z,91.44
2023-04-24T15:00:33.894Z,92.00
2023-04-24T15:03:14.482Z,91.56
2023-04-24T15:06:01.856Z,91.88
2023-04-24T15:08:50.535Z,91.62
2023-04-24T15:11:37.848Z,91.80
2023-04-24T15:14:25.814Z,92.06
2023-04-24T15:17:06.097Z,91.93
2023-04-24T15:19:52.856Z,91.70
2023-04-24T15:22:32.938Z,90.96
2023-04-24T15:25:19.765Z,91.83
2023-04-24T15:28:06.892Z,92.39
2023-04-24T15:30:47.212Z,91.84
2023-04-24T15:33:33.735Z,91.37
2023-04-24T15:36:14.197Z,91.93
2023-04-24T15:39:02.506Z,91.84
2023-04-24T15:41:45.311Z,91.17
2023-04-24T15:44:31.794Z,91.97
2023-04-24T15:47:14.488Z,91.02
2023-04-24T15:50:00.740Z,91.18
2023-04-24T15:52:41.188Z,91.32
2023-04-24T15:55:27.770Z,91.15
2023-04-24T15:58:08.509Z,90.93
2023-04-24T16:00:55.728Z,91.13
2023-04-24T16:03:42.900Z,91.00
2023-04-24T16:06:22.974Z,90.76
2023-04-24T16:09:09.694Z,91.28
2023-04-24T16:11:49.950Z,91.44
2023-04-24T16:14:36.760Z,90.03
2023-04-24T16:17:16.983Z,89.45
2023-04-24T16:20:03.882Z,89.55
2023-04-24T16:22:45.062Z,89.86
2023-04-24T16:25:34.227Z,89.59
2023-04-24T16:28:15.248Z,90.42
2023-04-24T16:31:01.769Z,90.69
2023-04-24T16:33:42.082Z,90.52
2023-04-24T16:36:28.857Z,90.90
2023-04-24T16:39:10.187Z,90.60
2023-04-24T16:41:59.069Z,90.35
2023-04-24T16:44:39.841Z,90.17
2023-04-24T16:47:26.687Z,91.19
2023-04-24T16:50:07.339Z,90.68
2023-04-24T16:52:53.909Z,90.79
2023-04-24T16:55:33.903Z,90.75
2023-04-24T16:58:20.664Z,91.13
2023-04-24T17:01:07.802Z,92.15
2023-04-24T17:03:48.370Z,91.89
2023-04-24T17:06:35.806Z,92.17
2023-04-24T17:09:17.652Z,91.79
2023-04-24T17:12:04.826Z,92.57
2023-04-24T17:14:52.044Z,92.08
2023-04-24T17:17:38.861Z,92.05
2023-04-24T17:20:27.026Z,92.18
2023-04-24T17:23:18.652Z,92.35
2023-04-24T17:25:59.245Z,98.39
2023-04-24T17:28:47.786Z,92.93
2023-04-24T17:31:28.418Z,92.82
2023-04-24T17:34:16.837Z,97.86
2023-04-24T17:36:57.529Z,94.39
2023-04-24T17:39:44.810Z,92.46
2023-04-24T17:42:25.169Z,93.15
2023-04-24T17:45:11.657Z,95.27
2023-04-24T17:47:52.086Z,91.68
2023-04-24T17:50:38.643Z,95.80
2023-04-24T17:53:19.490Z,97.94
2023-04-24T17:56:08.601Z,91.41
2023-04-24T17:58:49.272Z,100.00
2023-04-24T18:01:36.612Z,100.00
2023-04-24T18:04:17.241Z,95.97
2023-04-24T18:07:04.566Z,95.47
2023-04-24T18:09:52.570Z,99.00
2023-04-24T18:12:33.618Z,96.26
2023-04-24T18:15:20.743Z,97.15
2023-04-24T18:18:00.625Z,100.00
2023-04-24T18:20:41.127Z,98.02
2023-04-24T18:23:27.554Z,94.64
2023-04-24T18:26:08.503Z,100.00
2023-04-24T18:28:55.588Z,99.76
2023-04-24T18:31:35.997Z,94.80
2023-04-24T18:34:22.561Z,98.25
2023-04-24T18:37:09.537Z,99.16
2023-04-24T18:39:56.806Z,93.39
2023-04-24T18:42:36.524Z,100.00
2023-04-24T18:45:17.044Z,100.00
2023-04-24T18:48:03.577Z,98.91
2023-04-24T18:50:44.012Z,98.39
2023-04-24T18:53:30.582Z,100.00
2023-04-24T18:56:11.026Z,100.00
2023-04-24T18:58:58.557Z,97.59
2023-04-24T19:01:39.681Z,100.00
2023-04-24T19:04:28.621Z,100.00
2023-04-24T19:07:09.067Z,96.57
2023-04-24T19:09:55.549Z,100.00
2023-04-24T19:12:42.585Z,100.00
2023-04-24T19:15:22.670Z,99.87
2023-04-24T19:18:09.511Z,100.00
2023-04-24T19:20:49.641Z,100.00
2023-04-24T19:23:37.477Z,100.00
2023-04-24T19:26:17.682Z,97.97
2023-04-24T19:41:24.665Z,100.00
2023-04-24T19:44:11.707Z,99.39
2023-04-24T19:46:52.889Z,100.00
2023-04-24T19:49:39.627Z,100.00
2023-04-24T19:52:19.851Z,100.00
2023-04-24T19:55:06.648Z,99.39
2023-04-24T19:57:46.727Z,100.00
2023-04-24T20:00:47.636Z,100.00
2023-04-24T20:03:35.137Z,99.46
2023-04-24T20:06:15.078Z,100.00
2023-04-24T20:09:01.629Z,100.00
2023-04-24T20:11:48.652Z,100.00
2023-04-24T20:14:35.645Z,100.00
2023-04-24T20:17:19.090Z,100.00
2023-04-24T20:20:05.712Z,100.00
2023-04-24T20:22:46.014Z,100.00
2023-04-24T20:25:32.613Z,100.00
2023-04-24T20:28:14.869Z,100.00
2023-04-24T20:31:01.614Z,100.00
2023-04-24T20:33:42.132Z,100.00
2023-04-24T20:36:28.546Z,100.00
2023-04-24T20:39:22.530Z,100.00
2023-04-24T20:42:04.541Z,100.00
2023-04-24T20:44:52.537Z,100.00
2023-04-24T20:47:32.758Z,97.79
2023-04-24T20:50:19.628Z,100.00
2023-04-24T20:52:59.638Z,100.00
2023-04-24T20:55:46.551Z,100.00
2023-04-24T20:58:26.661Z,100.00
2023-04-24T21:01:13.576Z,100.00
2023-04-24T21:03:53.831Z,100.00
2023-04-24T21:06:40.665Z,100.00
2023-04-24T21:09:27.666Z,100.00
2023-04-24T21:12:08.071Z,100.00
2023-04-24T21:14:54.490Z,100.00
2023-04-24T21:17:41.576Z,100.00
2023-04-24T21:20:28.531Z,100.00
2023-04-24T21:23:15.742Z,100.00
2023-04-24T21:25:55.501Z,100.00
2023-04-24T21:28:36.671Z,100.00
2023-04-24T21:31:23.561Z,100.00
2023-04-24T21:34:04.142Z,100.00
2023-04-24T21:36:50.545Z,100.00
2023-04-24T21:39:44.461Z,100.00
2023-04-24T21:42:32.518Z,100.00
2023-04-24T21:45:12.597Z,100.00
2023-04-24T21:47:59.664Z,100.00
2023-04-24T21:50:41.756Z,100.00
2023-04-24T21:53:28.526Z,100.00
2023-04-24T21:56:09.234Z,100.00
2023-04-24T21:58:57.550Z,100.00
2023-04-24T22:01:37.629Z,100.00
2023-04-24T22:04:24.782Z,100.00
2023-04-24T22:07:04.737Z,100.00
2023-04-24T22:09:51.469Z,100.00
2023-04-24T22:12:31.604Z,100.00
2023-04-24T22:15:18.492Z,100.00
2023-04-24T22:18:05.588Z,100.00
2023-04-24T22:20:46.692Z,100.00
2023-04-24T22:23:33.452Z,100.00
2023-04-24T22:26:13.925Z,100.00
2023-04-24T22:29:00.489Z,100.00
2023-04-24T22:31:41.710Z,100.00
2023-04-24T22:34:28.463Z,100.00
2023-04-24T22:37:08.823Z,100.00
2023-04-24T22:39:55.414Z,100.00
2023-04-24T22:42:42.521Z,100.00
2023-04-24T22:45:24.389Z,100.00
2023-04-24T22:48:04.922Z,100.00
2023-04-24T22:50:51.401Z,100.00
2023-04-24T22:53:32.077Z,100.00
2023-04-24T22:56:18.490Z,100.00
2023-04-24T22:58:59.159Z,100.00
2023-04-24T23:01:46.543Z,100.00
2023-04-24T23:04:26.881Z,100.00
2023-04-24T23:07:13.450Z,100.00
2023-04-24T23:10:00.447Z,100.00
2023-04-24T23:12:47.360Z,100.00
2023-04-24T23:15:34.364Z,100.00
2023-04-24T23:18:14.539Z,100.00
2023-04-24T23:21:01.374Z,100.00
2023-04-24T23:23:48.776Z,100.00
2023-04-24T23:26:28.980Z,100.00
2023-04-24T23:29:15.420Z,100.00
2023-04-24T23:31:56.676Z,100.00
2023-04-24T23:34:46.375Z,100.00
2023-04-24T23:37:27.161Z,100.00
2023-04-24T23:40:14.386Z,100.00
2023-04-24T23:43:06.365Z,100.00
2023-04-24T23:45:54.404Z,100.00
2023-04-24T23:48:34.819Z,100.00
2023-04-24T23:51:21.431Z,100.00
2023-04-24T23:54:01.818Z,100.00
2023-04-24T23:56:48.411Z,100.00
2023-04-24T23:59:29.256Z,100.00
